Flight Track Log - Related Links

Times and Time Zones

All times are in EDT time to prevent confusion due to time zone crossing. See the N42HN flight status page for this flight to view local times or setup timezone preferences in your user account.

Time Position Orientation Groundspeed Altitude Reporting Facility
EDT Latitude Longitude Course Direction KTS MPH feet Rate Location/Type
Wed 09:19:58 AM 41.3239 -95.9161 359° North 197 227 2,200  Level Minneapolis Center
Wed 09:20:41 AM 41.3636 -95.9172 359° North 216 249 4,000 3,148 Climbing Minneapolis Center
Wed 09:22:00 AM 41.3497 -95.8486 105° East 248 285 8,600 3,000 Climbing Minneapolis Center
Wed 09:23:01 AM 41.3047 -95.8153 151° Southeast 233 268 11,000 2,444 Climbing Minneapolis Center
Wed 09:24:15 AM 41.2397 -95.7164 131° Southeast 291 335 14,100 3,044 Climbing Minneapolis Center
Wed 09:25:17 AM 41.1428 -95.5989 138° Southeast 330 380 17,900 3,435 Climbing Minneapolis Center
Wed 09:26:19 AM 41.0758 -95.5111 135° Southeast 337 388 21,200 2,613 Climbing Minneapolis Center
Wed 09:27:21 AM 41.0092 -95.4244 136° Southeast 335 386 23,300 2,195 Climbing Minneapolis Center
Wed 09:28:22 AM 40.9369 -95.3325 136° Southeast 350 403 25,700 2,098 Climbing Minneapolis Center
Wed 09:29:24 AM 40.8633 -95.2383 136° Southeast 362 417 27,600 1,805 Climbing Minneapolis Center
Wed 09:30:25 AM 40.7867 -95.1447 137° Southeast 369 425 29,400 1,707 Climbing Minneapolis Center
Wed 09:31:27 AM 40.7103 -95.0450 135° Southeast 376 433 31,100 1,597 Climbing Minneapolis Center
Wed 09:32:29 AM 40.6306 -94.9456 137° Southeast 385 443 32,700 1,756 Climbing Minneapolis Center
Wed 09:33:30 AM 40.5364 -94.8231 135° Southeast 395 455 34,700 1,561 Climbing Minneapolis Center
Wed 09:34:32 AM 40.4578 -94.7231 136° Southeast 394 453 35,900 976 Climbing Minneapolis Center
Wed 09:35:33 AM 40.3781 -94.6225 136° Southeast 396 456 36,700 720 Climbing Minneapolis Center
Wed 09:36:37 AM 40.2875 -94.5164 138° Southeast 400 460 37,400 667 Climbing Kansas City Center
Wed 09:37:39 AM 40.2069 -94.4214 138° Southeast 402 463 38,100 629 Climbing Kansas City Center
Wed 09:38:41 AM 40.1178 -94.3064 135° Southeast 404 465 38,700 488 Climbing Kansas City Center
Wed 09:39:42 AM 40.0383 -94.2125 138° Southeast 402 463 39,100 488 Climbing Kansas City Center
Wed 09:40:44 AM 39.9478 -94.0994 136° Southeast 402 463 39,700 435 Climbing Kansas City Center
Wed 09:41:46 AM 39.8742 -94.0086 137° Southeast 409 471 40,000 390 Climbing Kansas City Center
Wed 09:42:47 AM 39.7894 -93.9081 138° Southeast 402 463 40,500 390 Climbing Kansas City Center
Wed 09:43:49 AM 39.7022 -93.8008 137° Southeast 389 448 40,800 194 Climbing Kansas City Center
Wed 09:44:51 AM 39.6203 -93.7014 137° Southeast 397 457 40,900 97 Climbing Kansas City Center
Wed 09:45:53 AM 39.5411 -93.6042 137° Southeast 399 459 41,000 49 Climbing Kansas City Center
Wed 09:46:54 AM 39.4594 -93.5078 138° Southeast 401 461 41,000  Level Kansas City Center
Wed 09:47:56 AM 39.3778 -93.4092 137° Southeast 403 464 41,000  Level Kansas City Center
Wed 09:48:58 AM 39.2800 -93.2944 138° Southeast 403 464 41,000  Level Kansas City Center
Wed 09:50:00 AM 39.1961 -93.1942 137° Southeast 411 473 41,000  Level Kansas City Center
Wed 09:51:02 AM 39.1139 -93.0939 137° Southeast 411 473 41,000  Level Kansas City Center
Wed 09:52:03 AM 39.0286 -92.9958 138° Southeast 411 473 41,000  Level Kansas City Center
Wed 09:53:05 AM 38.9431 -92.8958 138° Southeast 412 474 41,000  Level Kansas City Center
Wed 09:54:07 AM 38.8397 -92.7775 138° Southeast 414 476 41,000  Level Kansas City Center
Wed 09:55:09 AM 38.7544 -92.6761 137° Southeast 415 478 41,000  Level Kansas City Center
Wed 09:56:11 AM 38.6686 -92.5753 137° Southeast 416 479 41,000  Level Kansas City Center
Wed 09:57:12 AM 38.5822 -92.4775 138° Southeast 415 478 41,000  Level Kansas City Center
Wed 09:58:14 AM 38.4975 -92.3747 136° Southeast 416 479 41,000  Level Kansas City Center
Wed 09:59:16 AM 38.4114 -92.2767 138° Southeast 413 475 41,000  Level Kansas City Center
Wed 10:00:18 AM 38.3242 -92.1803 139° Southeast 411 473 41,000  Level Kansas City Center
Wed 10:01:20 AM 38.2397 -92.0794 137° Southeast 411 473 41,000  Level Kansas City Center
Wed 10:02:22 AM 38.1539 -91.9806 138° Southeast 411 473 41,000  Level Kansas City Center
Wed 10:03:24 AM 38.0658 -91.8844 139° Southeast 412 474 41,000  Level Kansas City Center
Wed 10:04:26 AM 37.9633 -91.7658 138° Southeast 412 474 41,000  Level Kansas City Center
Wed 10:05:27 AM 37.8764 -91.6697 139° Southeast 411 473 41,000  Level Kansas City Center
Wed 10:06:29 AM 37.7906 -91.5728 138° Southeast 412 474 41,000  Level Kansas City Center
Wed 10:07:31 AM 37.7036 -91.4778 139° Southeast 411 473 41,000  Level Kansas City Center
Wed 10:08:33 AM 37.6175 -91.3806 138° Southeast 412 474 41,000  Level Kansas City Center
Wed 10:09:35 AM 37.5325 -91.2856 138° Southeast 410 472 41,000  Level Kansas City Center
Wed 10:10:37 AM 37.4453 -91.1931 140° Southeast 408 470 41,000  Level Kansas City Center
Wed 10:11:39 AM 37.3614 -91.0961 137° Southeast 408 470 41,000  Level Kansas City Center
Wed 10:12:41 AM 37.2586 -90.9831 139° Southeast 407 468 41,000  Level Kansas City Center
Wed 10:13:43 AM 37.1725 -90.8897 139° Southeast 407 468 41,000  Level Kansas City Center
Wed 10:14:45 AM 37.0872 -90.7967 139° Southeast 407 468 41,000  Level Kansas City Center
Wed 10:15:47 AM 37.0042 -90.7003 137° Southeast 407 468 41,000  Level Kansas City Center
Wed 10:16:49 AM 36.9183 -90.6061 139° Southeast 408 470 41,000  Level Kansas City Center
Wed 10:17:50 AM 36.8256 -90.5175 143° Southeast 413 475 41,000  Level Memphis Center
Wed 10:18:50 AM 36.7403 -90.4242 139° Southeast 413 475 41,000  Level Memphis Center
Wed 10:19:50 AM 36.6547 -90.3311 139° Southeast 413 475 41,000  Level Memphis Center
Wed 10:20:50 AM 36.5672 -90.2381 139° Southeast 413 475 41,000  Level Memphis Center
Wed 10:21:50 AM 36.4817 -90.1453 139° Southeast 408 470 41,000  Level Memphis Center
Wed 10:22:50 AM 36.3958 -90.0528 139° Southeast 408 470 41,000  Level Memphis Center
Wed 10:23:50 AM 36.3103 -89.9631 140° Southeast 408 470 41,000  Level Memphis Center
Wed 10:24:50 AM 36.2222 -89.8708 140° Southeast 408 470 41,000  Level Memphis Center
Wed 10:25:50 AM 36.1322 -89.7761 140° Southeast 414 476 41,000  Level Memphis Center
Wed 10:26:50 AM 36.0461 -89.6819 139° Southeast 414 476 41,000  Level Memphis Center
Wed 10:27:50 AM 35.9581 -89.5928 141° Southeast 414 476 41,000  Level Memphis Center
Wed 10:28:50 AM 35.8594 -89.4886 139° Southeast 414 476 41,000  Level Memphis Center
Wed 10:29:50 AM 35.7753 -89.3975 139° Southeast 409 471 41,000  Level Memphis Center
Wed 10:30:50 AM 35.7058 -89.3242 139° Southeast 409 471 41,000  Level Memphis Center
Wed 10:31:50 AM 35.6050 -89.2156 139° Southeast 409 471 41,000  Level Memphis Center
Wed 10:32:50 AM 35.5247 -89.1300 139° Southeast 409 471 41,000  Level Memphis Center
Wed 10:33:50 AM 35.4364 -89.0397 140° Southeast 414 476 41,000  Level Memphis Center
Wed 10:34:50 AM 35.3478 -88.9469 139° Southeast 414 476 41,000  Level Memphis Center
Wed 10:35:50 AM 35.2611 -88.8592 140° Southeast 414 476 41,000  Level Memphis Center
Wed 10:36:50 AM 35.1725 -88.7719 141° Southeast 409 471 41,000  Level Memphis Center
Wed 10:37:50 AM 35.0814 -88.6747 139° Southeast 409 471 41,000  Level Memphis Center
Wed 10:38:50 AM 34.9947 -88.5878 141° Southeast 409 471 41,000  Level Memphis Center
Wed 10:39:50 AM 34.9100 -88.5008 140° Southeast 402 463 41,000  Level Memphis Center
Wed 10:40:50 AM 34.8231 -88.4194 142° Southeast 397 457 41,000  Level Memphis Center
Wed 10:41:50 AM 34.7383 -88.3353 141° Southeast 397 457 41,000  Level Memphis Center
Wed 10:42:50 AM 34.6556 -88.2489 139° Southeast 397 457 41,000  Level Memphis Center
Wed 10:43:50 AM 34.5686 -88.1628 141° Southeast 404 465 41,000  Level Memphis Center
Wed 10:44:50 AM 34.4878 -88.0767 139° Southeast 397 457 41,000  Level Memphis Center
Wed 10:45:50 AM 34.4111 -88.0033 142° Southeast 391 450 41,000  Level Memphis Center
Wed 10:46:50 AM 34.3261 -87.9200 141° Southeast 385 443 41,000  Level Memphis Center
Wed 10:48:41 AM 34.1739 -87.7697 141° Southeast 401 461 41,000  Level Atlanta Center
Wed 10:49:41 AM 34.0908 -87.6883 141° Southeast 401 461 41,000  Level Atlanta Center
Wed 10:50:41 AM 34.0056 -87.6047 141° Southeast 396 456 41,000  Level Atlanta Center
Wed 10:51:41 AM 33.9225 -87.5211 140° Southeast 396 456 41,000  Level Atlanta Center
Wed 10:52:42 AM 33.8392 -87.4400 141° Southeast 391 450 41,000  Level Atlanta Center
Wed 10:53:42 AM 33.7558 -87.3594 141° Southeast 391 450 41,000  Level Atlanta Center
Wed 10:54:42 AM 33.6703 -87.2736 140° Southeast 391 450 41,000  Level Atlanta Center
Wed 10:55:42 AM 33.5869 -87.1933 141° Southeast 391 450 41,000  Level Atlanta Center
Wed 10:56:42 AM 33.5033 -87.1106 140° Southeast 391 450 41,000  Level Atlanta Center
Wed 10:57:42 AM 33.4178 -87.0278 141° Southeast 391 450 41,000  Level Atlanta Center
Wed 10:58:42 AM 33.3342 -86.9453 140° Southeast 391 450 41,000 -350 Level Atlanta Center
Wed 10:59:42 AM 33.2531 -86.8433 134° Southeast 384 442 40,300 -1,550 Descending Atlanta Center
Wed 11:00:42 AM 33.2686 -86.7022 82° East 362 417 37,900 -2,050 Descending Atlanta Center
Wed 11:01:42 AM 33.3072 -86.5642 71° East 398 458 36,200 -1,450 Descending Atlanta Center
Wed 11:02:42 AM 33.3497 -86.4111 72° East 415 478 35,000 -1,513 Descending Atlanta Center
Wed 11:03:41 AM 33.3881 -86.2656 72° East 431 496 33,200 -1,000 Descending Atlanta Center
Wed 11:04:42 AM 33.4303 -86.1147 71° East 453 521 33,000 -595 Descending Atlanta Center
Wed 11:05:42 AM 33.4661 -85.9611 74° East 463 533 32,000 -550 Descending Atlanta Center
Wed 11:06:42 AM 33.5433 -85.8308 55° Northeast 463 533 31,900 -950 Descending Atlanta Center
Wed 11:07:42 AM 33.6136 -85.7275 51° Northeast 456 525 30,100 -2,550 Descending Atlanta Center
Wed 11:08:42 AM 33.6986 -85.6044 50° Northeast 479 551 26,800 -2,800 Descending Atlanta Center
Wed 11:09:42 AM 33.7881 -85.4736 51° Northeast 485 558 24,500 -3,100 Descending Atlanta Center
Wed 11:10:42 AM 33.8622 -85.3622 51° Northeast 443 510 20,600 -4,150 Descending Atlanta Center
Wed 11:11:42 AM 33.9281 -85.2606 52° Northeast 402 463 16,200 -4,200 Descending Atlanta Center
Wed 11:12:42 AM 33.9914 -85.1714 49° Northeast 372 428 12,200 -3,350 Descending Atlanta Center
Wed 11:13:42 AM 34.0467 -85.0842 53° Northeast 340 391 9,500 -2,200 Descending Atlanta Center
Wed 11:14:42 AM 34.0972 -84.9994 54° Northeast 315 362 7,800 -1,250 Descending Atlanta Center
Wed 11:15:42 AM 34.1083 -84.9069 82° East 274 315 7,000 -400 Descending Atlanta Center
Wed 11:16:42 AM 34.1133 -84.8117 86° East 274 315 7,000  Level Atlanta Center
Wed 11:17:42 AM 34.1097 -84.7264 93° East 279 321 7,000  Level Atlanta Center
Wed 11:18:42 AM 34.1081 -84.6333 91° East 279 321 7,000  Level Atlanta Center
Wed 11:19:42 AM 34.1083 -84.5381 90° East 274 315 7,000  Level Atlanta Center
Wed 11:20:42 AM 34.1089 -84.4378 90° East 274 315 7,000 -500 Level Atlanta Center
Wed 11:21:42 AM 34.1089 -84.3525 90° East 269 310 6,000 -449 Descending Atlanta Center
Wed 11:23:09 AM 34.1167 -84.2333 85° East 229 264 5,900 -423 Descending Atlanta TRACON
Wed 11:24:04 AM 34.1167 -84.1667 90° East 228 262 5,000 -450 Descending Atlanta TRACON
Wed 11:25:09 AM 34.1167 -84.0833 90° East 213 245 5,000 -450 Level Atlanta TRACON
Wed 11:26:04 AM 34.1167 -84.0333 90° East 217 250 4,100 -500 Descending Atlanta TRACON
Wed 11:27:09 AM 34.1167 -83.9500 90° East 211 243 4,000 -48 Descending Atlanta TRACON
Wed 11:28:10 AM 34.1167 -83.8833 90° East 210 242 4,000  Level Atlanta TRACON
Wed 11:29:09 AM 34.1167 -83.8167 90° East 196 226 4,000 -432 Level Atlanta TRACON
Wed 11:30:15 AM 34.0667 -83.8000 165° South 188 216 3,100 -381 Descending Atlanta TRACON
Wed 11:31:15 AM 34.0333 -83.8333 220° Southwest 138 159 3,200 -200 Climbing Atlanta TRACON
Wed 11:32:15 AM 34.0167 -83.8667 239° Southwest 144 166 2,700 -678 Descending Atlanta TRACON
Wed 11:33:10 AM 34.0000 -83.9000 239° Southwest 129 148 1,900 -873 Descending Atlanta TRACON
Wed 11:35:00 AM 33.9667 -83.9500 59° Northeast  Level FlightAware Approximate
Wed 11:42:00 AM 33.9781 -83.9624 59° Northeast  Level Estimated
Wed 11:43:00 AM 33.9781 -83.9624 59° Northeast  Level Estimated

Login

Don't have an account? Register now (free) for customized features, flight alerts, and more!